createdAt,value
2018-11-28T17:23:37.131Z,16.20
2018-11-28T17:26:20.184Z,15.70
2018-11-28T17:28:52.559Z,15.67
2018-11-28T17:31:23.422Z,15.67
2018-11-28T17:33:54.300Z,15.57
2018-11-28T17:36:23.655Z,15.67
2018-11-28T17:38:53.395Z,14.50
2018-11-28T17:41:27.088Z,17.00
2018-11-28T17:43:59.742Z,16.13
2018-11-28T17:46:29.676Z,13.47
2018-11-28T17:49:09.479Z,13.20
2018-11-28T17:51:42.570Z,11.87
2018-11-28T17:56:49.320Z,12.67
2018-11-28T18:05:07.632Z,14.60
2018-11-28T18:07:37.089Z,14.40
2018-11-28T18:14:53.741Z,14.97
2018-11-28T18:17:23.263Z,16.33
2018-11-28T18:19:52.885Z,15.93
2018-11-28T18:22:22.425Z,17.25
2018-11-28T18:24:51.771Z,17.13
2018-11-28T18:27:21.244Z,18.20
2018-11-28T18:29:50.863Z,17.83
2018-11-28T18:32:20.517Z,18.87
2018-11-28T18:34:49.891Z,18.97
2018-11-28T18:37:24.080Z,21.17
2018-11-28T18:39:49.403Z,21.70
2018-11-28T18:42:29.456Z,19.75
2018-11-28T18:45:02.383Z,19.47
2018-11-28T18:47:34.233Z,21.17
2018-11-28T18:50:08.051Z,20.97
2018-11-28T18:52:37.440Z,22.07
2018-11-28T18:55:09.099Z,22.85
2018-11-28T18:57:38.709Z,23.60
2018-11-28T19:00:18.050Z,27.57
2018-11-28T19:02:47.232Z,20.53
2018-11-28T19:05:16.744Z,25.03
2018-11-28T19:07:46.702Z,21.33
2018-11-28T19:10:16.697Z,17.45
2018-11-28T19:12:47.052Z,18.55
2018-11-28T19:15:18.314Z,18.73
2018-11-28T19:17:48.484Z,22.35
2018-11-28T19:20:19.391Z,19.48
2018-11-28T19:22:49.337Z,19.25
2018-11-28T19:25:20.791Z,17.95
2018-11-28T19:27:49.984Z,19.55
2018-11-28T19:30:21.321Z,17.93
2018-11-28T19:32:50.626Z,18.10
2018-11-28T19:35:20.425Z,18.60
2018-11-28T19:37:50.958Z,19.62
2018-11-28T19:40:24.587Z,23.75
2018-11-28T19:43:03.955Z,19.70
2018-11-28T19:48:02.051Z,18.33
2018-11-28T19:50:33.672Z,18.52
2018-11-28T19:53:03.144Z,20.50
2018-11-28T19:55:32.775Z,20.23
2018-11-28T19:58:02.509Z,19.83
2018-11-28T20:00:31.923Z,21.77
2018-11-28T20:03:01.392Z,20.40
2018-11-28T20:05:30.764Z,19.23
2018-11-28T20:08:00.098Z,17.87
2018-11-28T20:10:29.412Z,20.77
2018-11-28T20:12:59.083Z,19.60
2018-11-28T20:15:32.271Z,18.80
2018-11-28T20:18:01.844Z,21.27
2018-11-28T20:20:31.079Z,19.93
2018-11-28T20:23:00.781Z,18.07
2018-11-28T20:25:29.891Z,19.10
2018-11-28T20:28:00.019Z,20.53
2018-11-28T20:30:44.811Z,18.17
2018-11-28T20:33:15.291Z,21.13
2018-11-28T20:35:45.842Z,18.47
2018-11-28T20:38:19.785Z,18.97
2018-11-28T20:40:49.333Z,19.30
2018-11-28T20:43:19.044Z,18.87
2018-11-28T20:45:58.342Z,19.23
2018-11-28T20:48:27.736Z,17.63
2018-11-28T20:50:56.847Z,16.80
2018-11-28T20:53:28.265Z,18.97
2018-11-28T20:55:57.693Z,19.00
2018-11-28T20:58:26.595Z,20.70
2018-11-28T21:00:56.094Z,18.77
2018-11-28T21:03:25.447Z,20.00
2018-11-28T21:05:55.087Z,19.63
2018-11-28T21:08:24.851Z,19.40
2018-11-28T21:10:54.043Z,17.93
2018-11-28T21:13:23.423Z,18.67
2018-11-28T21:15:52.696Z,18.57
2018-11-28T21:18:22.239Z,19.63
2018-11-28T21:20:51.599Z,20.50
2018-11-28T21:23:21.519Z,20.23
2018-11-28T21:25:51.183Z,19.47
2018-11-28T21:28:21.315Z,20.37
2018-11-28T21:30:50.537Z,20.40
2018-11-28T21:33:19.912Z,19.93
2018-11-28T21:35:51.246Z,19.60
2018-11-28T21:38:20.635Z,19.93
2018-11-28T21:40:50.097Z,20.03
2018-11-28T21:43:19.727Z,21.87
2018-11-28T21:45:49.212Z,21.33
2018-11-28T21:48:18.477Z,18.87
2018-11-28T21:50:47.835Z,17.23
2018-11-28T21:53:17.158Z,18.77
2018-11-28T21:55:46.363Z,18.27
2018-11-28T21:58:15.744Z,20.57
2018-11-28T22:00:45.231Z,19.07
2018-11-28T22:03:15.090Z,19.17
2018-11-28T22:05:44.134Z,18.87
2018-11-28T22:08:13.619Z,18.70
2018-11-28T22:10:42.841Z,18.17
2018-11-28T22:13:12.206Z,20.10
2018-11-28T22:15:41.479Z,17.87
2018-11-28T22:18:10.616Z,21.50
2018-11-28T22:20:39.947Z,19.87
2018-11-28T22:23:09.172Z,19.20
2018-11-28T22:25:38.708Z,18.17
2018-11-28T22:28:08.132Z,17.00
2018-11-28T22:30:37.357Z,19.50
2018-11-28T22:33:07.594Z,20.50
2018-11-28T22:35:36.871Z,18.63
2018-11-28T22:38:06.406Z,18.80
2018-11-28T22:40:35.544Z,19.50
2018-11-28T22:43:04.847Z,19.60
2018-11-28T22:45:34.998Z,18.50
2018-11-28T22:48:04.259Z,19.00
2018-11-28T22:50:33.850Z,18.10
2018-11-28T22:53:03.332Z,19.53
2018-11-28T22:55:33.610Z,18.23
2018-11-28T22:58:02.959Z,17.53
2018-11-28T23:00:37.167Z,18.70
2018-11-28T23:03:09.280Z,18.20
2018-11-28T23:05:44.037Z,17.77
2018-11-28T23:08:15.251Z,17.87
2018-11-28T23:10:44.631Z,17.33
2018-11-28T23:13:16.087Z,17.17
2018-11-28T23:15:45.757Z,17.83
2018-11-28T23:18:15.359Z,17.70
2018-11-28T23:20:45.426Z,17.50
2018-11-28T23:23:14.350Z,18.23
2018-11-28T23:25:43.167Z,17.03
2018-11-28T23:28:13.110Z,16.70
2018-11-28T23:30:42.408Z,16.90
2018-11-28T23:33:16.063Z,18.90
2018-11-28T23:35:41.518Z,17.80
2018-11-28T23:38:10.858Z,17.33
2018-11-28T23:40:39.930Z,17.97
2018-11-28T23:43:09.234Z,17.37
2018-11-28T23:45:38.546Z,18.57
2018-11-28T23:48:07.806Z,18.50
2018-11-28T23:50:37.314Z,17.67
2018-11-28T23:53:06.538Z,17.43
2018-11-28T23:55:35.579Z,17.17
2018-11-28T23:58:04.968Z,18.93
